Nearby METAR Reports

 

KDVT - Phoenix/Deer Vly, Arizona, USA
Distance from station: SW 14mi, 22km
Updated: 2020-04-01 19:53
NOT Current
Clear
Clear
 Wind from S
Wind: S 3 mph , 6 km/h
Temperature: 72°F , 22°C
Dew Point: 39°F , 4°C
Humidity: 31%
Barometer: 29.75 inHg , 1007.5 hPa
Clouds: Clear
Visibility: 10 miles , 16 km
2020/04/02 02:53 KDVT 020253Z 17003KT 10SM CLR 22/04 A2975 RMK AO2 SLP056 T02220039 53004
KSDL - Scottsdale, Arizona, USA
Distance from station: S 15mi, 23km
Updated: 2020-04-01 19:53
NOT Current
Clear
Clear
 Wind from calm
Wind: Calm
Temperature: 75°F , 24°C
Dew Point: 37°F , 3°C
Humidity: 25%
Barometer: 29.76 inHg , 1007.8 hPa
Clouds: Clear
Visibility: 10 miles , 16 km
2020/04/02 02:53 KSDL 020253Z 00000KT 10SM CLR 24/03 A2976 RMK AO2 SLP058 T02440033 53005
KFFZ - Mesa/Falcon Fld, Arizona, USA
Distance from station: SSE 27mi, 44km
Updated: 2020-04-01 19:54
NOT Current
Clear
Clear
 Wind from NW
Wind: NW 3 mph , 6 km/h
Temperature: 75°F , 24°C
Dew Point: 37°F , 3°C
Humidity: 25%
Barometer: 29.74 inHg , 1007.1 hPa
Clouds: Clear
Visibility: 10 miles , 16 km
2020/04/02 02:54 KFFZ 020254Z 31003KT 10SM CLR 24/03 A2974 RMK AO2 SLP053 T02440028 53005
 
KPHX - Phoenix/Sky Hrbr, Arizona, USA
Distance from station: SSW 28mi, 45km
Updated: 2020-04-01 19:51
NOT Current
Few Clouds
Few Clouds
 Wind from NNW
Wind: NNW 5 mph , 7 km/h
Temperature: 81°F , 27°C
Dew Point: 36°F , 2°C
Humidity: 20%
Barometer: 29.71 inHg , 1006.1 hPa
Clouds: Few Clouds
Visibility: 10 miles , 16 km
Cloud details: Few Clouds 16000 ft
Few Clouds 25000 ft
Few Clouds 29000 ft
2020/04/02 02:51 KPHX 020251Z 33004KT 10SM FEW160 FEW250 FEW290 27/02 A2971 RMK AO2 SLP048 T02670022 53003
KLUF - Luke Afb/Glendal, Arizona, USA
Distance from station: SW 34mi, 55km
Updated: 2020-04-01 19:58
NOT Current
Clear
Clear
 Wind from W
Wind: W 6 mph , 9 km/h
Temperature: 73°F , 23°C
Dew Point: 39°F , 4°C
Humidity: 29%
Barometer: 29.71 inHg , 1006.1 hPa
Clouds: Clear
Visibility: 10 miles , 16 km
2020/04/02 02:58 KLUF 020258Z AUTO 27005KT 10SM CLR 23/04 A2971 RMK AO2 SLP053 T02290039 53002 $
KGYR - Goodyear Municip, Arizona, USA
Distance from station: SW 39mi, 63km
Updated: 2020-04-01 19:47
NOT Current
Clear
Clear
 Wind from calm
Wind: Calm
Temperature: 75°F , 24°C
Dew Point: 39°F , 4°C
Humidity: 27%
Barometer: 29.73 inHg , 1006.8 hPa
Clouds: Clear
Visibility: 10 miles , 16 km
2020/04/02 02:47 KGYR 020247Z 00000KT 10SM SKC 24/04 A2973
 
KIWA - Chandler/Mesa, Arizona, USA
Distance from station: SSE 39mi, 63km
Updated: 2020-04-01 19:47
NOT Current
Few Clouds
Few Clouds
 Wind from calm
Wind: Calm
Temperature: 75°F , 24°C
Dew Point: 36°F , 2°C
Humidity: 24%
Barometer: 29.76 inHg , 1007.8 hPa
Clouds: Few Clouds
Visibility: 10 miles , 16 km
Cloud details: Few Clouds 20000 ft
2020/04/02 02:47 KIWA 020247Z 00000KT 10SM FEW200 24/02 A2976
KPAN - Payson, Arizona, USA
Distance from station: NE 44mi, 70km
Updated: 2020-04-01 20:15
Clear
Clear
 Wind from S
Wind: S 5 mph , 7 km/h
Temperature: 55°F , 13°C
Dew Point: 30°F , -1°C
Humidity: 38%
Barometer: 29.93 inHg , 1013.5 hPa
Clouds: Clear
Visibility: 10 miles , 16 km
2020/04/02 03:15 KPAN 020315Z AUTO 18004KT 10SM CLR 13/M01 A2993 RMK AO2
KBXK - Buckeye, Arizona, USA
Distance from station: WSW 53mi, 86km
Updated: 2020-04-01 20:35
Clear
Clear
 Wind from calm
Wind: Calm
Temperature: 70°F , 21°C
Dew Point: 37°F , 3°C
Humidity: 31%
Barometer: 29.74 inHg , 1007.1 hPa
Clouds: Clear
Visibility: 10 miles , 16 km
2020/04/02 03:35 KBXK 020335Z AUTO 00000KT 10SM CLR 21/03 A2974 RMK A01
 
KA39 - Maricopa Ak-Chin, Arizona, USA
Distance from station: S 58mi, 94km
Updated: 2020-04-01 20:15
Clear
Clear
 Wind from W
Wind: W 6 mph , 9 km/h
Temperature: 72°F , 22°C
Dew Point: 37°F , 3°C
Humidity: 29%
Barometer: 29.80 inHg , 1009.1 hPa
Clouds: Clear
Visibility: 10 miles , 16 km
2020/04/02 03:15 KA39 020315Z AUTO 26005KT 10SM CLR 22/03 A2980 RMK AO2
KPRC - Prescott, Arizona, USA
Distance from station: NNW 64mi, 103km
Updated: 2020-04-01 19:53
NOT Current
Clear
Clear
 Wind from SW
Wind: SW 12 mph , 19 km/h
Temperature: 55°F , 13°C
Dew Point: 34°F , 1°C
Humidity: 44%
Barometer: 29.87 inHg , 1011.5 hPa
Clouds: Clear
Visibility: 10 miles , 16 km
2020/04/02 02:53 KPRC 020253Z 22010KT 10SM CLR 13/01 A2987 RMK AO2 SLP063 T01330006 53006
KSEZ - Sedona, Arizona, USA
Distance from station: N 71mi, 114km
Updated: 2020-04-01 20:15
Clear
Clear
 Wind from S
Wind: S 10 mph , 17 km/h, Gust: 20 mph , 31 km/h
Temperature: 59°F , 15°C
Dew Point: 32°F , 0°C
Humidity: 36%
Barometer: 29.87 inHg , 1011.5 hPa
Clouds: Clear
Visibility: 10 miles , 16 km
2020/04/02 03:15 KSEZ 020315Z AUTO 18009G17KT 10SM CLR 15/00 A2987 RMK AO2
 
KFLG - Flagstaff, Arizona, USA
Distance from station: N 91mi, 147km
Updated: 2020-04-01 19:57
NOT Current
Clear
Clear
 Wind from SSW
Wind: SSW 20 mph , 31 km/h, Gust: 29 mph , 46 km/h
Temperature: 46°F , 8°C
Wind Chill: 38°F , 3°C
Dew Point: 30°F , -1°C
Humidity: 53%
Barometer: 29.90 inHg , 1012.5 hPa
Clouds: Clear
Visibility: 10 miles , 16 km
2020/04/02 02:57 KFLG 020257Z 21017G25KT 10SM CLR 08/M01 A2990 RMK AO2 SLP071 T00831011 53004